createdAt,value
2019-05-16T00:00:29.521Z,51.82
2019-05-16T00:02:59.133Z,51.67
2019-05-16T00:05:28.666Z,51.78
2019-05-16T00:07:59.115Z,52.80
2019-05-16T00:10:29.146Z,52.59
2019-05-16T00:12:59.801Z,52.58
2019-05-16T00:15:29.506Z,52.99
2019-05-16T00:17:58.999Z,53.70
2019-05-16T00:20:28.680Z,53.96
2019-05-16T00:22:58.826Z,53.70
2019-05-16T00:25:28.849Z,54.11
2019-05-16T00:27:58.849Z,53.78
2019-05-16T00:30:28.988Z,53.62
2019-05-16T00:32:58.966Z,53.38
2019-05-16T00:35:28.825Z,53.39
2019-05-16T00:37:58.997Z,54.11
2019-05-16T00:40:28.864Z,54.08
2019-05-16T00:42:59.039Z,54.74
2019-05-16T00:45:29.480Z,54.19
2019-05-16T00:47:59.342Z,54.62
2019-05-16T00:50:29.084Z,54.74
2019-05-16T00:52:59.123Z,54.24
2019-05-16T00:55:30.211Z,55.13
2019-05-16T00:58:00.205Z,54.13
2019-05-16T01:00:49.845Z,55.17
2019-05-16T01:03:20.164Z,55.55
2019-05-16T01:05:51.564Z,55.82
2019-05-16T01:08:21.226Z,55.49
2019-05-16T01:10:51.521Z,56.26
2019-05-16T01:13:21.326Z,55.47
2019-05-16T01:15:50.792Z,55.14
2019-05-16T01:18:20.378Z,55.02
2019-05-16T01:20:49.929Z,54.87
2019-05-16T01:23:19.421Z,54.73
2019-05-16T01:25:48.953Z,53.95
2019-05-16T01:28:18.878Z,54.60
2019-05-16T01:30:49.057Z,54.46
2019-05-16T01:33:19.443Z,54.77
2019-05-16T01:35:49.708Z,54.58
2019-05-16T01:38:19.205Z,54.74
2019-05-16T01:40:49.342Z,54.66
2019-05-16T01:43:18.935Z,54.88
2019-05-16T01:46:08.422Z,54.76
2019-05-16T01:48:38.296Z,54.79
2019-05-16T01:51:07.961Z,54.96
2019-05-16T01:53:39.510Z,54.53
2019-05-16T01:56:08.740Z,54.62
2019-05-16T01:58:38.379Z,54.50
2019-05-16T02:01:13.198Z,54.32
2019-05-16T02:03:39.135Z,54.46
2019-05-16T02:06:08.956Z,54.50
2019-05-16T02:08:38.571Z,54.30
2019-05-16T02:11:08.507Z,54.00
2019-05-16T02:13:39.097Z,54.43
2019-05-16T02:16:08.789Z,54.17
2019-05-16T02:18:38.338Z,54.32
2019-05-16T02:21:08.044Z,53.87
2019-05-16T02:23:38.206Z,53.47
2019-05-16T02:26:07.946Z,53.68
2019-05-16T02:28:40.836Z,53.17
2019-05-16T02:31:14.748Z,53.29
2019-05-16T02:33:40.868Z,53.55
2019-05-16T02:36:11.105Z,53.74
2019-05-16T02:38:42.250Z,53.50
2019-05-16T02:41:12.106Z,53.22
2019-05-16T02:43:42.125Z,52.65
2019-05-16T02:46:12.290Z,53.02
2019-05-16T02:48:42.273Z,52.80
2019-05-16T02:51:11.816Z,52.89
2019-05-16T02:53:41.768Z,52.73
2019-05-16T02:56:12.177Z,52.46
2019-05-16T02:58:44.824Z,52.14
2019-05-16T03:01:13.547Z,52.05
2019-05-16T03:03:43.993Z,52.02
2019-05-16T03:06:15.574Z,52.34
2019-05-16T03:08:46.720Z,51.85
2019-05-16T03:11:16.555Z,51.54
2019-05-16T03:13:51.350Z,51.40
2019-05-16T03:16:23.108Z,51.09
2019-05-16T03:18:54.648Z,51.13
2019-05-16T03:21:25.355Z,51.53
2019-05-16T03:23:54.986Z,51.26
2019-05-16T03:26:24.526Z,51.37
2019-05-16T03:29:13.436Z,51.32
2019-05-16T03:31:45.187Z,50.93
2019-05-16T03:34:16.779Z,50.37
2019-05-16T03:36:45.514Z,50.27
2019-05-16T03:39:14.987Z,50.39
2019-05-16T03:41:44.621Z,50.58
2019-05-16T03:44:14.129Z,50.23
2019-05-16T03:46:43.629Z,50.28
2019-05-16T03:49:13.121Z,50.41
2019-05-16T03:51:42.590Z,50.31
2019-05-16T03:54:12.739Z,50.66
2019-05-16T03:56:42.321Z,49.89
2019-05-16T03:59:11.892Z,49.75
2019-05-16T04:01:41.463Z,50.22
2019-05-16T04:04:12.042Z,50.08
2019-05-16T04:06:41.956Z,50.15
2019-05-16T04:09:12.585Z,49.99
2019-05-16T04:11:43.081Z,49.74
2019-05-16T04:14:12.764Z,49.32
2019-05-16T04:16:42.231Z,50.38
2019-05-16T04:19:11.862Z,49.89
2019-05-16T04:21:42.347Z,49.83
2019-05-16T04:24:12.605Z,50.29
2019-05-16T04:26:42.250Z,49.19
2019-05-16T04:29:12.153Z,50.07
2019-05-16T04:31:41.961Z,49.40
2019-05-16T04:34:11.992Z,50.06
2019-05-16T04:36:41.562Z,49.20
2019-05-16T04:39:12.133Z,48.90
2019-05-16T04:41:41.805Z,49.19
2019-05-16T04:44:11.964Z,49.40
2019-05-16T04:46:41.636Z,49.34
2019-05-16T04:49:11.518Z,49.20
2019-05-16T04:51:41.667Z,49.18
2019-05-16T04:54:11.736Z,49.99
2019-05-16T04:56:41.583Z,48.83
2019-05-16T04:59:16.127Z,49.57
2019-05-16T05:01:42.536Z,48.67
2019-05-16T05:04:15.330Z,49.30
2019-05-16T05:06:43.237Z,48.60
2019-05-16T05:09:12.721Z,48.52
2019-05-16T05:11:42.179Z,48.44
2019-05-16T05:14:11.756Z,47.67
2019-05-16T05:16:41.542Z,48.32
2019-05-16T05:19:11.326Z,48.45
2019-05-16T05:21:41.218Z,47.94
2019-05-16T05:24:11.177Z,48.29
2019-05-16T05:26:41.518Z,47.64
2019-05-16T05:29:11.150Z,48.01
2019-05-16T05:31:44.572Z,48.45
2019-05-16T05:34:11.876Z,48.07
2019-05-16T05:36:41.357Z,47.40
2019-05-16T05:39:15.250Z,48.19
2019-05-16T05:41:42.026Z,48.78
2019-05-16T05:44:11.585Z,48.32
2019-05-16T05:46:41.748Z,48.04
2019-05-16T05:49:11.291Z,48.25
2019-05-16T05:51:41.049Z,48.29
2019-05-16T05:54:10.982Z,48.30
2019-05-16T05:56:40.888Z,47.72
2019-05-16T05:59:11.426Z,48.16
2019-05-16T06:01:41.091Z,47.87
2019-05-16T06:04:10.767Z,47.99
2019-05-16T06:06:43.005Z,47.87
2019-05-16T06:09:25.391Z,48.82
2019-05-16T06:11:43.004Z,47.27
2019-05-16T06:14:12.507Z,47.98
2019-05-16T06:16:41.963Z,47.73
2019-05-16T06:19:11.472Z,48.83
2019-05-16T06:21:44.340Z,48.30
2019-05-16T06:24:12.267Z,47.63
2019-05-16T06:26:41.742Z,48.02
2019-05-16T06:29:11.265Z,46.81
2019-05-16T06:31:40.837Z,47.54
2019-05-16T06:34:15.000Z,46.07
2019-05-16T06:36:41.882Z,45.96
2019-05-16T06:39:11.620Z,45.67
2019-05-16T06:41:41.132Z,46.49
2019-05-16T06:44:10.819Z,44.84
2019-05-16T06:46:56.309Z,45.40
2019-05-16T06:49:11.631Z,45.34
2019-05-16T06:51:41.117Z,44.82
2019-05-16T06:54:10.996Z,44.44
2019-05-16T06:56:40.463Z,43.59
2019-05-16T06:59:10.495Z,43.34
2019-05-16T07:01:40.558Z,42.16
2019-05-16T07:04:10.627Z,43.48
2019-05-16T07:06:54.647Z,44.38
2019-05-16T07:09:11.827Z,43.98
2019-05-16T07:11:41.353Z,42.79
2019-05-16T07:14:10.938Z,42.79
2019-05-16T07:16:40.699Z,42.12
2019-05-16T07:19:10.607Z,42.23
2019-05-16T07:21:40.330Z,42.97
2019-05-16T07:24:10.985Z,42.01
2019-05-16T07:26:40.704Z,41.53
2019-05-16T07:29:10.954Z,41.27
2019-05-16T07:31:40.841Z,40.89
2019-05-16T07:34:13.992Z,42.05
2019-05-16T07:36:41.672Z,40.09
2019-05-16T07:39:11.140Z,41.29
2019-05-16T07:41:40.710Z,40.80
2019-05-16T07:44:10.999Z,42.10
2019-05-16T07:46:44.459Z,40.17
2019-05-16T07:49:12.044Z,40.48
2019-05-16T07:51:41.640Z,41.00
2019-05-16T07:54:11.180Z,42.14
2019-05-16T07:56:41.038Z,42.79
2019-05-16T07:59:10.809Z,40.70
2019-05-16T08:01:43.188Z,41.63
2019-05-16T08:04:11.556Z,40.03
2019-05-16T08:06:41.742Z,39.51
2019-05-16T08:09:12.676Z,40.44
2019-05-16T08:11:42.549Z,41.07
2019-05-16T08:14:12.049Z,40.92
2019-05-16T08:16:41.531Z,41.21
2019-05-16T08:19:11.012Z,40.91
2019-05-16T08:21:41.148Z,41.20
2019-05-16T08:24:14.955Z,41.35
2019-05-16T08:26:43.252Z,39.91
2019-05-16T08:31:44.358Z,40.91
2019-05-16T08:34:13.969Z,42.09
2019-05-16T08:36:43.463Z,41.96
2019-05-16T08:39:13.082Z,41.90
2019-05-16T08:41:42.672Z,41.17
2019-05-16T08:44:12.765Z,40.23
2019-05-16T08:46:42.679Z,41.35
2019-05-16T08:49:12.727Z,40.69
2019-05-16T08:51:42.909Z,40.79
2019-05-16T08:54:13.640Z,41.06
2019-05-16T08:56:44.543Z,41.09
2019-05-16T08:59:14.667Z,41.74
2019-05-16T09:01:52.127Z,41.41
2019-05-16T09:04:15.462Z,38.99
2019-05-16T09:06:45.021Z,40.59
2019-05-16T09:09:29.637Z,40.07
2019-05-16T09:10:10.718Z,41.51
2019-05-16T09:11:48.730Z,39.96
2019-05-16T09:14:17.382Z,41.38
2019-05-16T09:16:47.927Z,42.01
2019-05-16T09:19:17.588Z,41.00
2019-05-16T09:21:47.643Z,40.17
2019-05-16T09:24:18.017Z,39.85
2019-05-16T09:26:47.758Z,39.40
2019-05-16T09:29:17.316Z,39.91
2019-05-16T09:32:06.665Z,38.71
2019-05-16T09:34:18.054Z,39.34
2019-05-16T09:36:48.250Z,39.65
2019-05-16T09:39:17.859Z,38.30
2019-05-16T09:41:54.635Z,39.50
2019-05-16T09:44:18.705Z,38.55
2019-05-16T09:46:48.280Z,42.10
2019-05-16T09:49:28.025Z,41.16
2019-05-16T09:51:49.070Z,40.08
2019-05-16T09:54:18.628Z,39.31
2019-05-16T09:56:48.248Z,40.08
2019-05-16T09:59:17.910Z,39.35
2019-05-16T10:01:47.977Z,39.04
2019-05-16T10:04:17.771Z,39.09
2019-05-16T10:06:47.868Z,37.36
2019-05-16T10:09:17.692Z,38.28
2019-05-16T10:11:50.855Z,37.52
2019-05-16T10:14:18.637Z,38.92
2019-05-16T10:16:48.204Z,40.08
2019-05-16T10:19:17.869Z,35.55
2019-05-16T10:21:47.329Z,37.57
2019-05-16T10:24:16.937Z,35.65
2019-05-16T10:26:51.632Z,35.73
2019-05-16T10:29:18.675Z,36.41
2019-05-16T10:31:52.936Z,36.03
2019-05-16T10:34:19.589Z,37.89
2019-05-16T10:36:49.103Z,38.00
2019-05-16T10:39:18.709Z,36.63
2019-05-16T10:41:48.193Z,36.97
2019-05-16T10:44:17.799Z,36.96
2019-05-16T10:46:48.076Z,35.57
2019-05-16T10:49:31.727Z,35.72
2019-05-16T10:51:48.913Z,37.79
2019-05-16T10:54:18.751Z,36.43
2019-05-16T10:56:48.560Z,36.22
2019-05-16T11:01:49.431Z,36.75
2019-05-16T11:04:29.366Z,35.73
2019-05-16T11:06:50.232Z,37.81
2019-05-16T11:09:19.697Z,38.03
2019-05-16T11:11:49.206Z,36.92
2019-05-16T11:14:18.703Z,38.66
2019-05-16T11:16:48.233Z,36.76
2019-05-16T11:19:24.114Z,37.89
2019-05-16T11:21:48.977Z,37.81
2019-05-16T11:24:18.517Z,37.83
2019-05-16T11:26:47.955Z,37.84
2019-05-16T11:29:17.465Z,39.58
2019-05-16T11:31:47.021Z,38.54
2019-05-16T11:34:17.372Z,40.57
2019-05-16T11:36:47.781Z,40.13
2019-05-16T11:39:17.616Z,40.12
2019-05-16T11:41:47.641Z,39.30
2019-05-16T11:44:17.742Z,37.45
2019-05-16T11:46:49.208Z,36.69
2019-05-16T11:49:18.745Z,36.24
2019-05-16T11:51:48.423Z,39.46
2019-05-16T11:54:18.571Z,37.44
2019-05-16T11:56:48.043Z,37.24
2019-05-16T11:59:17.504Z,38.04
2019-05-16T12:01:47.643Z,38.62
2019-05-16T12:04:17.587Z,35.62
2019-05-16T12:06:47.102Z,37.26
2019-05-16T12:09:17.869Z,35.76
2019-05-16T12:11:47.497Z,37.48
2019-05-16T12:14:17.080Z,38.80
2019-05-16T12:16:47.301Z,36.74
2019-05-16T12:19:18.195Z,38.60
2019-05-16T12:21:47.960Z,36.44
2019-05-16T12:24:31.917Z,36.51
2019-05-16T12:26:48.938Z,36.85
2019-05-16T12:29:18.431Z,36.10
2019-05-16T12:31:57.532Z,34.32
2019-05-16T12:34:19.214Z,33.81
2019-05-16T12:36:49.557Z,35.87
2019-05-16T12:39:19.061Z,34.74
2019-05-16T12:41:49.076Z,34.96
2019-05-16T12:44:18.994Z,36.24
2019-05-16T12:46:48.485Z,34.83
2019-05-16T12:49:18.051Z,36.22
2019-05-16T12:51:47.717Z,35.88
2019-05-16T12:54:18.219Z,34.98
2019-05-16T12:56:48.487Z,35.73
2019-05-16T12:59:21.359Z,35.56
2019-05-16T13:01:49.428Z,37.43
2019-05-16T13:04:19.411Z,37.15
2019-05-16T13:06:49.064Z,35.94
2019-05-16T13:09:18.745Z,39.09
2019-05-16T13:11:48.403Z,36.45
2019-05-16T13:14:17.879Z,36.84
2019-05-16T13:16:47.650Z,35.75
2019-05-16T13:19:18.309Z,36.07
2019-05-16T13:21:47.913Z,36.31
2019-05-16T13:24:18.787Z,36.20
2019-05-16T13:26:48.499Z,37.43
2019-05-16T13:29:18.352Z,36.90
2019-05-16T13:31:48.372Z,38.67
2019-05-16T13:34:18.153Z,37.21
2019-05-16T13:36:47.812Z,37.42
2019-05-16T13:39:18.448Z,38.41
2019-05-16T13:41:47.977Z,37.79
2019-05-16T13:44:22.611Z,37.27
2019-05-16T13:46:48.703Z,37.00
2019-05-16T13:49:18.439Z,38.25
2019-05-16T13:51:48.069Z,38.16
2019-05-16T13:54:17.845Z,37.00
2019-05-16T13:56:48.400Z,38.47
2019-05-16T13:59:18.124Z,39.09
2019-05-16T14:01:47.693Z,38.02
2019-05-16T14:04:17.486Z,38.47
2019-05-16T14:06:47.726Z,39.42
2019-05-16T14:09:17.445Z,38.68
2019-05-16T14:11:47.568Z,38.65
2019-05-16T14:14:33.175Z,38.10
2019-05-16T14:16:48.296Z,40.05
2019-05-16T14:19:17.843Z,40.02
2019-05-16T14:21:47.957Z,39.72
2019-05-16T14:24:18.212Z,39.24
2019-05-16T14:26:47.811Z,40.43
2019-05-16T14:29:17.842Z,40.02
2019-05-16T14:31:47.561Z,41.00
2019-05-16T14:34:17.981Z,41.89
2019-05-16T14:36:47.908Z,41.17
2019-05-16T14:39:19.340Z,41.26
2019-05-16T14:41:48.703Z,42.19
2019-05-16T14:44:18.592Z,41.88
2019-05-16T14:46:48.194Z,41.96
2019-05-16T14:49:17.744Z,41.92
2019-05-16T14:51:48.010Z,42.57
2019-05-16T14:54:17.840Z,42.38
2019-05-16T14:56:47.778Z,42.80
2019-05-16T14:59:17.352Z,42.52
2019-05-16T15:01:47.418Z,43.92
2019-05-16T15:04:17.231Z,42.55
2019-05-16T15:06:47.146Z,43.08
2019-05-16T15:09:17.632Z,43.70
2019-05-16T15:11:47.508Z,43.65
2019-05-16T15:14:17.576Z,43.87
2019-05-16T15:16:51.561Z,43.19
2019-05-16T15:19:19.096Z,44.17
2019-05-16T15:21:48.640Z,44.51
2019-05-16T15:24:18.126Z,45.46
2019-05-16T15:26:47.707Z,46.24
2019-05-16T15:29:17.242Z,45.15
2019-05-16T15:31:46.973Z,44.67
2019-05-16T15:34:16.506Z,45.70
2019-05-16T15:36:46.791Z,45.68
2019-05-16T15:39:17.141Z,45.22
2019-05-16T15:41:46.758Z,46.07
2019-05-16T15:44:17.149Z,45.81
2019-05-16T15:46:47.889Z,45.76
2019-05-16T15:49:18.072Z,46.49
2019-05-16T15:51:48.995Z,45.54
2019-05-16T15:54:23.044Z,45.19
2019-05-16T15:56:52.578Z,44.99
2019-05-16T15:59:22.324Z,45.55
2019-05-16T16:01:51.856Z,46.02
2019-05-16T16:04:21.345Z,46.93
2019-05-16T16:06:50.911Z,45.53
2019-05-16T16:09:20.485Z,46.35
2019-05-16T16:11:49.968Z,45.33
2019-05-16T16:14:19.441Z,47.22
2019-05-16T16:16:48.958Z,45.14
2019-05-16T16:19:18.475Z,46.19
2019-05-16T16:21:47.959Z,45.31
2019-05-16T16:24:19.156Z,45.38
2019-05-16T16:26:48.694Z,44.88
2019-05-16T16:29:18.190Z,45.43
2019-05-16T16:31:47.818Z,45.46
2019-05-16T16:34:17.711Z,45.63
2019-05-16T16:36:47.692Z,44.91
2019-05-16T16:39:17.311Z,44.49
2019-05-16T16:41:47.804Z,44.48
2019-05-16T16:44:18.091Z,46.42
2019-05-16T16:46:47.831Z,46.49
2019-05-16T16:49:17.532Z,45.50
2019-05-16T16:51:48.026Z,45.37
2019-05-16T16:54:17.789Z,44.91
2019-05-16T16:56:47.512Z,45.80
2019-05-16T16:59:17.434Z,45.01
2019-05-16T17:01:47.687Z,46.72
2019-05-16T17:04:17.605Z,45.48
2019-05-16T17:06:47.330Z,46.05
2019-05-16T17:09:16.908Z,46.17
2019-05-16T17:11:46.703Z,46.21
2019-05-16T17:14:17.426Z,46.71
2019-05-16T17:16:47.524Z,45.18
2019-05-16T17:19:17.193Z,45.05
2019-05-16T17:22:02.477Z,44.69
2019-05-16T17:24:17.898Z,45.84
2019-05-16T17:26:47.935Z,44.99
2019-05-16T17:29:17.460Z,44.73
2019-05-16T17:31:56.151Z,44.70
2019-05-16T17:34:18.171Z,45.33
2019-05-16T17:36:47.763Z,44.75
2019-05-16T17:39:18.286Z,44.16
2019-05-16T17:41:54.440Z,43.74
2019-05-16T17:44:19.507Z,44.62
2019-05-16T17:46:49.297Z,44.76
2019-05-16T17:49:18.779Z,45.48
2019-05-16T17:51:48.256Z,44.34
2019-05-16T17:54:17.832Z,44.24
2019-05-16T17:56:47.496Z,44.75
2019-05-16T17:59:17.235Z,44.66
2019-05-16T18:01:46.990Z,45.06
2019-05-16T18:04:17.244Z,44.69
2019-05-16T18:06:47.347Z,44.86
2019-05-16T18:09:17.204Z,45.42
2019-05-16T18:11:47.012Z,45.63
2019-05-16T18:14:17.201Z,45.46
2019-05-16T18:16:53.716Z,45.73
2019-05-16T18:19:18.385Z,46.88
2019-05-16T18:21:47.895Z,46.41
2019-05-16T18:24:17.442Z,47.23
2019-05-16T18:26:47.003Z,46.58
2019-05-16T18:29:16.494Z,46.63
2019-05-16T18:31:47.173Z,46.91
2019-05-16T18:34:17.122Z,47.24
2019-05-16T18:36:46.849Z,47.01
2019-05-16T18:39:16.333Z,47.17
2019-05-16T18:41:47.224Z,46.91
2019-05-16T18:44:16.956Z,46.72
2019-05-16T18:46:47.097Z,47.23
2019-05-16T18:49:16.885Z,47.80
2019-05-16T18:51:46.691Z,47.72
2019-05-16T18:54:17.343Z,48.52
2019-05-16T18:56:47.514Z,48.50
2019-05-16T18:59:17.166Z,49.32
2019-05-16T19:01:47.036Z,49.71
2019-05-16T19:04:17.547Z,49.74
2019-05-16T19:06:47.393Z,49.86
2019-05-16T19:09:16.900Z,50.18
2019-05-16T19:11:46.444Z,50.99
2019-05-16T19:14:16.874Z,51.50
2019-05-16T19:16:48.949Z,50.62
2019-05-16T19:19:17.918Z,51.83
2019-05-16T19:21:47.414Z,51.21
2019-05-16T19:24:16.943Z,52.55
2019-05-16T19:26:47.083Z,52.75
2019-05-16T19:29:17.321Z,51.94
2019-05-16T19:31:50.296Z,51.77
2019-05-16T19:34:18.336Z,51.52
2019-05-16T19:36:47.875Z,52.22
2019-05-16T19:39:17.450Z,52.43
2019-05-16T19:41:47.050Z,51.87
2019-05-16T19:44:16.901Z,51.27
2019-05-16T19:46:47.023Z,51.88
2019-05-16T19:49:16.726Z,53.18
2019-05-16T19:51:48.944Z,52.31
2019-05-16T19:54:17.508Z,52.88
2019-05-16T19:56:47.095Z,53.23
2019-05-16T19:59:16.969Z,52.74
2019-05-16T20:01:46.611Z,52.93
2019-05-16T20:04:18.304Z,53.13
2019-05-16T20:06:47.579Z,53.17
2019-05-16T20:09:17.221Z,53.40
2019-05-16T20:11:46.863Z,53.24
2019-05-16T20:14:19.450Z,52.83
2019-05-16T20:16:47.661Z,53.97
2019-05-16T20:19:17.230Z,53.90
2019-05-16T20:21:47.608Z,54.27
2019-05-16T20:24:17.352Z,54.02
2019-05-16T20:26:46.980Z,54.05
2019-05-16T20:29:17.171Z,54.17
2019-05-16T20:31:47.554Z,53.90
2019-05-16T20:34:17.696Z,53.97
2019-05-16T20:36:47.447Z,53.89
2019-05-16T20:39:17.374Z,53.90
2019-05-16T20:41:47.527Z,54.17
2019-05-16T20:44:17.375Z,55.22
2019-05-16T20:46:49.670Z,54.25
2019-05-16T20:49:18.391Z,54.46
2019-05-16T20:51:50.023Z,55.38
2019-05-16T20:54:19.156Z,55.42
2019-05-16T20:56:49.454Z,55.44
2019-05-16T20:59:19.221Z,55.55
2019-05-16T21:01:49.319Z,55.38
2019-05-16T21:04:18.902Z,55.59
2019-05-16T21:07:00.289Z,55.63
2019-05-16T21:09:19.632Z,55.97
2019-05-16T21:11:50.072Z,56.25
2019-05-16T21:14:19.814Z,56.67
2019-05-16T21:16:49.702Z,55.77
2019-05-16T21:19:19.234Z,55.96
2019-05-16T21:21:48.739Z,55.46
2019-05-16T21:24:18.223Z,56.05
2019-05-16T21:26:47.699Z,55.72
2019-05-16T21:29:19.566Z,55.30
2019-05-16T21:31:48.467Z,55.52
2019-05-16T21:34:19.255Z,55.87
2019-05-16T21:36:48.880Z,55.72
2019-05-16T21:39:18.516Z,56.42
2019-05-16T21:41:48.164Z,56.31
2019-05-16T21:44:17.757Z,56.44
2019-05-16T21:46:47.323Z,56.40
2019-05-16T21:49:19.466Z,57.23
2019-05-16T21:51:48.221Z,56.62
2019-05-16T21:54:17.866Z,56.75
2019-05-16T21:56:47.403Z,57.84
2019-05-16T21:59:16.910Z,57.45
2019-05-16T22:01:47.317Z,57.73
2019-05-16T22:04:16.885Z,58.01
2019-05-16T22:06:47.511Z,58.30
2019-05-16T22:09:17.168Z,58.42
2019-05-16T22:11:46.713Z,58.85
2019-05-16T22:14:18.408Z,59.01
2019-05-16T22:16:47.975Z,59.70
2019-05-16T22:19:19.098Z,60.00
2019-05-16T22:21:48.559Z,60.00
2019-05-16T22:24:18.050Z,59.78
2019-05-16T22:26:47.519Z,60.17
2019-05-16T22:29:17.176Z,59.75
2019-05-16T22:31:47.192Z,59.97
2019-05-16T22:34:17.074Z,60.27
2019-05-16T22:36:49.257Z,60.69
2019-05-16T22:39:17.860Z,60.82
2019-05-16T22:41:47.341Z,60.56
2019-05-16T22:44:17.751Z,60.70
2019-05-16T22:46:47.434Z,60.94
2019-05-16T22:49:17.094Z,60.73
2019-05-16T22:51:46.678Z,60.93
2019-05-16T22:54:17.190Z,61.13
2019-05-16T22:56:46.866Z,61.43
2019-05-16T22:59:16.711Z,61.80
2019-05-16T23:01:46.501Z,61.85
2019-05-16T23:04:16.794Z,61.66
2019-05-16T23:06:46.583Z,61.85
2019-05-16T23:09:16.454Z,62.05
2019-05-16T23:11:46.004Z,62.09
2019-05-16T23:14:17.051Z,62.06
2019-05-16T23:16:46.740Z,62.23
2019-05-16T23:19:17.113Z,62.44
2019-05-16T23:21:47.483Z,62.30
2019-05-16T23:24:17.417Z,62.31
2019-05-16T23:26:47.135Z,62.27
2019-05-16T23:29:17.042Z,62.62
2019-05-16T23:31:47.157Z,62.45
2019-05-16T23:34:18.789Z,62.38
2019-05-16T23:36:48.517Z,62.49
2019-05-16T23:39:18.017Z,62.67
2019-05-16T23:41:47.571Z,63.02
2019-05-16T23:44:17.133Z,62.78
2019-05-16T23:46:47.079Z,62.74
2019-05-16T23:49:16.962Z,62.73
2019-05-16T23:51:47.302Z,62.94
2019-05-16T23:54:17.380Z,63.18
2019-05-16T23:56:46.873Z,63.03
2019-05-16T23:59:17.153Z,62.98
